sensor_id;sensor_type;location;lat;lon;timestamp;temperature;humidity
63771;DHT22;60282;43.862;18.430;2023-07-24T00:00:23;22.90;99.90
63771;DHT22;60282;43.862;18.430;2023-07-24T00:02:50;23.10;99.90
63771;DHT22;60282;43.862;18.430;2023-07-24T00:05:15;23.10;99.90
63771;DHT22;60282;43.862;18.430;2023-07-24T00:07:41;23.30;99.90
63771;DHT22;60282;43.862;18.430;2023-07-24T00:10:07;24.30;99.90
63771;DHT22;60282;43.862;18.430;2023-07-24T00:12:33;22.50;99.90
63771;DHT22;60282;43.862;18.430;2023-07-24T00:14:59;22.80;99.90
63771;DHT22;60282;43.862;18.430;2023-07-24T00:17:25;22.00;99.90
63771;DHT22;60282;43.862;18.430;2023-07-24T00:19:50;21.10;99.90
63771;DHT22;60282;43.862;18.430;2023-07-24T00:22:17;22.00;99.90
63771;DHT22;60282;43.862;18.430;2023-07-24T00:24:42;22.50;99.90
63771;DHT22;60282;43.862;18.430;2023-07-24T00:27:08;22.30;99.90
63771;DHT22;60282;43.862;18.430;2023-07-24T00:29:34;21.90;99.90
63771;DHT22;60282;43.862;18.430;2023-07-24T00:32:00;21.20;99.90
63771;DHT22;60282;43.862;18.430;2023-07-24T00:34:25;22.30;99.90
63771;DHT22;60282;43.862;18.430;2023-07-24T00:36:51;20.80;99.90
63771;DHT22;60282;43.862;18.430;2023-07-24T00:39:17;20.80;99.90
63771;DHT22;60282;43.862;18.430;2023-07-24T00:41:43;20.90;99.90
63771;DHT22;60282;43.862;18.430;2023-07-24T00:44:09;21.40;99.90
63771;DHT22;60282;43.862;18.430;2023-07-24T00:46:35;21.20;99.90
63771;DHT22;60282;43.862;18.430;2023-07-24T00:49:02;20.90;99.90
63771;DHT22;60282;43.862;18.430;2023-07-24T00:51:30;20.70;99.90
63771;DHT22;60282;43.862;18.430;2023-07-24T00:53:58;20.60;99.90
63771;DHT22;60282;43.862;18.430;2023-07-24T00:56:26;20.50;99.90
63771;DHT22;60282;43.862;18.430;2023-07-24T00:58:54;20.30;99.90
63771;DHT22;60282;43.862;18.430;2023-07-24T01:01:21;22.30;99.90
63771;DHT22;60282;43.862;18.430;2023-07-24T01:03:47;19.90;99.90
63771;DHT22;60282;43.862;18.430;2023-07-24T01:06:14;20.40;99.90
63771;DHT22;60282;43.862;18.430;2023-07-24T01:08:40;20.50;99.90
63771;DHT22;60282;43.862;18.430;2023-07-24T01:11:16;20.40;99.90
63771;DHT22;60282;43.862;18.430;2023-07-24T01:16:36;20.10;99.90
63771;DHT22;60282;43.862;18.430;2023-07-24T01:19:06;20.00;99.90
63771;DHT22;60282;43.862;18.430;2023-07-24T01:21:48;20.00;99.90
63771;DHT22;60282;43.862;18.430;2023-07-24T01:24:32;20.00;99.90
63771;DHT22;60282;43.862;18.430;2023-07-24T01:26:59;19.90;99.90
63771;DHT22;60282;43.862;18.430;2023-07-24T01:29:24;19.80;99.90
63771;DHT22;60282;43.862;18.430;2023-07-24T01:31:50;21.60;99.90
63771;DHT22;60282;43.862;18.430;2023-07-24T01:34:16;19.90;99.90
63771;DHT22;60282;43.862;18.430;2023-07-24T01:36:42;19.10;99.90
63771;DHT22;60282;43.862;18.430;2023-07-24T01:39:08;20.10;99.90
63771;DHT22;60282;43.862;18.430;2023-07-24T01:41:35;20.00;99.90
63771;DHT22;60282;43.862;18.430;2023-07-24T01:44:00;17.80;99.90
63771;DHT22;60282;43.862;18.430;2023-07-24T01:46:26;19.60;99.90
63771;DHT22;60282;43.862;18.430;2023-07-24T01:48:52;19.60;99.90
63771;DHT22;60282;43.862;18.430;2023-07-24T01:51:18;19.90;99.90
63771;DHT22;60282;43.862;18.430;2023-07-24T01:53:43;20.00;99.90
63771;DHT22;60282;43.862;18.430;2023-07-24T01:56:09;20.20;99.90
63771;DHT22;60282;43.862;18.430;2023-07-24T01:58:35;20.10;99.90
63771;DHT22;60282;43.862;18.430;2023-07-24T02:01:00;20.00;99.90
63771;DHT22;60282;43.862;18.430;2023-07-24T02:03:26;20.00;99.90
63771;DHT22;60282;43.862;18.430;2023-07-24T02:05:52;19.90;99.90
63771;DHT22;60282;43.862;18.430;2023-07-24T02:08:17;20.40;99.90
63771;DHT22;60282;43.862;18.430;2023-07-24T02:10:43;20.40;99.90
63771;DHT22;60282;43.862;18.430;2023-07-24T02:13:09;21.00;99.90
63771;DHT22;60282;43.862;18.430;2023-07-24T02:15:35;21.00;99.90
63771;DHT22;60282;43.862;18.430;2023-07-24T02:18:01;20.70;99.90
63771;DHT22;60282;43.862;18.430;2023-07-24T02:20:27;20.40;99.90
63771;DHT22;60282;43.862;18.430;2023-07-24T02:22:53;19.90;99.90
63771;DHT22;60282;43.862;18.430;2023-07-24T02:25:18;19.80;99.90
63771;DHT22;60282;43.862;18.430;2023-07-24T02:27:44;20.10;99.90
63771;DHT22;60282;43.862;18.430;2023-07-24T02:30:10;20.00;99.90
63771;DHT22;60282;43.862;18.430;2023-07-24T02:32:36;19.90;99.90
63771;DHT22;60282;43.862;18.430;2023-07-24T02:35:02;19.70;99.90
63771;DHT22;60282;43.862;18.430;2023-07-24T02:37:28;19.60;99.90
63771;DHT22;60282;43.862;18.430;2023-07-24T02:39:54;19.60;99.90
63771;DHT22;60282;43.862;18.430;2023-07-24T02:42:20;19.50;99.90
63771;DHT22;60282;43.862;18.430;2023-07-24T02:44:45;19.50;99.90
63771;DHT22;60282;43.862;18.430;2023-07-24T02:47:11;19.50;99.90
63771;DHT22;60282;43.862;18.430;2023-07-24T02:49:37;19.80;99.90
63771;DHT22;60282;43.862;18.430;2023-07-24T02:52:03;20.00;99.90
63771;DHT22;60282;43.862;18.430;2023-07-24T02:54:28;20.80;99.90
63771;DHT22;60282;43.862;18.430;2023-07-24T02:56:54;20.90;99.90
63771;DHT22;60282;43.862;18.430;2023-07-24T02:59:20;21.20;99.90
63771;DHT22;60282;43.862;18.430;2023-07-24T03:01:46;21.00;99.90
63771;DHT22;60282;43.862;18.430;2023-07-24T03:04:12;21.20;99.90
63771;DHT22;60282;43.862;18.430;2023-07-24T03:06:39;21.50;99.90
63771;DHT22;60282;43.862;18.430;2023-07-24T03:09:05;21.50;99.90
63771;DHT22;60282;43.862;18.430;2023-07-24T03:11:30;21.50;99.90
63771;DHT22;60282;43.862;18.430;2023-07-24T03:13:56;21.30;99.90
63771;DHT22;60282;43.862;18.430;2023-07-24T03:16:22;20.80;99.90
63771;DHT22;60282;43.862;18.430;2023-07-24T03:18:48;21.00;99.90
63771;DHT22;60282;43.862;18.430;2023-07-24T03:21:13;21.00;99.90
63771;DHT22;60282;43.862;18.430;2023-07-24T03:23:39;21.20;99.90
63771;DHT22;60282;43.862;18.430;2023-07-24T03:26:05;20.80;99.90
63771;DHT22;60282;43.862;18.430;2023-07-24T03:28:31;20.70;99.90
63771;DHT22;60282;43.862;18.430;2023-07-24T03:30:57;20.90;99.90
63771;DHT22;60282;43.862;18.430;2023-07-24T03:33:22;20.60;99.90
63771;DHT22;60282;43.862;18.430;2023-07-24T03:35:48;20.50;99.90
63771;DHT22;60282;43.862;18.430;2023-07-24T03:38:14;21.00;99.90
63771;DHT22;60282;43.862;18.430;2023-07-24T03:40:39;21.10;99.90
63771;DHT22;60282;43.862;18.430;2023-07-24T03:43:05;20.60;99.90
63771;DHT22;60282;43.862;18.430;2023-07-24T03:45:31;20.70;99.90
63771;DHT22;60282;43.862;18.430;2023-07-24T03:47:57;21.30;99.90
63771;DHT22;60282;43.862;18.430;2023-07-24T03:50:23;20.60;99.90
63771;DHT22;60282;43.862;18.430;2023-07-24T03:52:49;20.70;99.90
63771;DHT22;60282;43.862;18.430;2023-07-24T03:55:14;21.00;99.90
63771;DHT22;60282;43.862;18.430;2023-07-24T03:57:40;20.80;99.90
63771;DHT22;60282;43.862;18.430;2023-07-24T04:00:06;20.60;99.90
63771;DHT22;60282;43.862;18.430;2023-07-24T04:02:32;21.00;99.90
63771;DHT22;60282;43.862;18.430;2023-07-24T04:04:58;20.90;99.90
63771;DHT22;60282;43.862;18.430;2023-07-24T04:07:24;20.40;99.90
63771;DHT22;60282;43.862;18.430;2023-07-24T04:09:49;20.90;99.90
63771;DHT22;60282;43.862;18.430;2023-07-24T04:12:15;20.30;99.90
63771;DHT22;60282;43.862;18.430;2023-07-24T04:14:41;19.90;99.90
63771;DHT22;60282;43.862;18.430;2023-07-24T04:17:07;19.90;99.90
63771;DHT22;60282;43.862;18.430;2023-07-24T04:19:32;19.90;99.90
63771;DHT22;60282;43.862;18.430;2023-07-24T04:21:58;19.90;99.90
63771;DHT22;60282;43.862;18.430;2023-07-24T04:24:24;20.50;99.90
63771;DHT22;60282;43.862;18.430;2023-07-24T04:26:49;20.40;99.90
63771;DHT22;60282;43.862;18.430;2023-07-24T04:29:15;20.60;99.90
63771;DHT22;60282;43.862;18.430;2023-07-24T04:31:41;21.10;99.90
63771;DHT22;60282;43.862;18.430;2023-07-24T04:34:06;21.30;99.90
63771;DHT22;60282;43.862;18.430;2023-07-24T04:36:32;21.40;99.90
63771;DHT22;60282;43.862;18.430;2023-07-24T04:38:58;21.60;99.90
63771;DHT22;60282;43.862;18.430;2023-07-24T04:41:24;21.90;99.90
63771;DHT22;60282;43.862;18.430;2023-07-24T04:43:49;23.70;99.90
63771;DHT22;60282;43.862;18.430;2023-07-24T04:46:15;22.20;99.90
63771;DHT22;60282;43.862;18.430;2023-07-24T04:48:41;22.40;99.90
63771;DHT22;60282;43.862;18.430;2023-07-24T04:51:06;22.10;99.90
63771;DHT22;60282;43.862;18.430;2023-07-24T04:53:32;22.30;99.90
63771;DHT22;60282;43.862;18.430;2023-07-24T04:55:58;22.20;99.90
63771;DHT22;60282;43.862;18.430;2023-07-24T04:58:24;22.20;99.90
63771;DHT22;60282;43.862;18.430;2023-07-24T05:00:49;22.20;99.90
63771;DHT22;60282;43.862;18.430;2023-07-24T05:03:15;22.30;99.90
63771;DHT22;60282;43.862;18.430;2023-07-24T05:05:42;22.40;99.90
63771;DHT22;60282;43.862;18.430;2023-07-24T05:08:08;22.60;99.90
63771;DHT22;60282;43.862;18.430;2023-07-24T05:10:37;22.50;99.90
63771;DHT22;60282;43.862;18.430;2023-07-24T05:13:02;22.50;99.90
63771;DHT22;60282;43.862;18.430;2023-07-24T05:15:28;22.60;99.90
63771;DHT22;60282;43.862;18.430;2023-07-24T05:17:54;22.10;99.90
63771;DHT22;60282;43.862;18.430;2023-07-24T05:20:20;22.30;99.90
63771;DHT22;60282;43.862;18.430;2023-07-24T05:22:46;22.20;99.90
63771;DHT22;60282;43.862;18.430;2023-07-24T05:25:11;21.90;99.90
63771;DHT22;60282;43.862;18.430;2023-07-24T05:27:37;22.10;99.90
63771;DHT22;60282;43.862;18.430;2023-07-24T05:30:04;22.10;99.90
63771;DHT22;60282;43.862;18.430;2023-07-24T05:32:30;21.80;99.90
63771;DHT22;60282;43.862;18.430;2023-07-24T05:34:55;22.00;99.90
63771;DHT22;60282;43.862;18.430;2023-07-24T05:37:21;22.10;99.90
63771;DHT22;60282;43.862;18.430;2023-07-24T05:39:47;22.40;99.90
63771;DHT22;60282;43.862;18.430;2023-07-24T05:42:13;22.60;99.90
63771;DHT22;60282;43.862;18.430;2023-07-24T05:44:38;22.50;99.90
63771;DHT22;60282;43.862;18.430;2023-07-24T05:47:04;22.50;99.90
63771;DHT22;60282;43.862;18.430;2023-07-24T05:49:30;22.70;99.90
63771;DHT22;60282;43.862;18.430;2023-07-24T05:51:56;22.60;99.90
63771;DHT22;60282;43.862;18.430;2023-07-24T05:54:22;22.80;99.90
63771;DHT22;60282;43.862;18.430;2023-07-24T05:56:48;23.20;99.90
63771;DHT22;60282;43.862;18.430;2023-07-24T05:59:14;23.40;99.90
63771;DHT22;60282;43.862;18.430;2023-07-24T06:01:39;23.60;99.90
63771;DHT22;60282;43.862;18.430;2023-07-24T06:04:05;23.70;99.90
63771;DHT22;60282;43.862;18.430;2023-07-24T06:06:33;23.90;99.90
63771;DHT22;60282;43.862;18.430;2023-07-24T06:08:58;24.00;99.90
63771;DHT22;60282;43.862;18.430;2023-07-24T06:11:24;24.10;99.90
63771;DHT22;60282;43.862;18.430;2023-07-24T06:13:51;24.20;99.90
63771;DHT22;60282;43.862;18.430;2023-07-24T06:16:18;24.30;99.90
63771;DHT22;60282;43.862;18.430;2023-07-24T06:18:44;24.40;99.90
63771;DHT22;60282;43.862;18.430;2023-07-24T06:21:10;24.50;99.90
63771;DHT22;60282;43.862;18.430;2023-07-24T06:23:36;24.60;99.90
63771;DHT22;60282;43.862;18.430;2023-07-24T06:26:01;24.70;99.90
63771;DHT22;60282;43.862;18.430;2023-07-24T06:28:27;24.70;99.90
63771;DHT22;60282;43.862;18.430;2023-07-24T06:30:54;24.80;99.90
63771;DHT22;60282;43.862;18.430;2023-07-24T06:33:20;24.90;99.90
63771;DHT22;60282;43.862;18.430;2023-07-24T06:35:49;25.10;99.90
63771;DHT22;60282;43.862;18.430;2023-07-24T06:38:15;24.80;99.90
63771;DHT22;60282;43.862;18.430;2023-07-24T06:40:40;24.80;99.90
63771;DHT22;60282;43.862;18.430;2023-07-24T06:43:06;24.90;99.90
63771;DHT22;60282;43.862;18.430;2023-07-24T06:45:32;25.10;99.90
63771;DHT22;60282;43.862;18.430;2023-07-24T06:47:58;25.20;99.90
63771;DHT22;60282;43.862;18.430;2023-07-24T06:50:24;25.30;99.90
63771;DHT22;60282;43.862;18.430;2023-07-24T06:52:49;25.50;99.90
63771;DHT22;60282;43.862;18.430;2023-07-24T06:55:17;25.50;99.90
63771;DHT22;60282;43.862;18.430;2023-07-24T06:57:43;25.60;99.90
63771;DHT22;60282;43.862;18.430;2023-07-24T07:00:09;25.90;99.90
63771;DHT22;60282;43.862;18.430;2023-07-24T07:02:37;25.80;99.90
63771;DHT22;60282;43.862;18.430;2023-07-24T07:05:04;25.90;99.90
63771;DHT22;60282;43.862;18.430;2023-07-24T07:07:30;26.20;99.90
63771;DHT22;60282;43.862;18.430;2023-07-24T07:09:56;26.10;99.90
63771;DHT22;60282;43.862;18.430;2023-07-24T07:12:22;26.20;99.90
63771;DHT22;60282;43.862;18.430;2023-07-24T07:14:48;26.20;99.90
63771;DHT22;60282;43.862;18.430;2023-07-24T07:17:13;26.20;99.90
63771;DHT22;60282;43.862;18.430;2023-07-24T07:19:39;26.20;99.90
63771;DHT22;60282;43.862;18.430;2023-07-24T07:22:05;26.20;99.90
63771;DHT22;60282;43.862;18.430;2023-07-24T07:24:31;26.30;99.90
63771;DHT22;60282;43.862;18.430;2023-07-24T07:26:57;26.30;99.90
63771;DHT22;60282;43.862;18.430;2023-07-24T07:29:22;26.30;99.90
63771;DHT22;60282;43.862;18.430;2023-07-24T07:31:48;26.40;99.90
63771;DHT22;60282;43.862;18.430;2023-07-24T07:34:14;26.40;99.90
63771;DHT22;60282;43.862;18.430;2023-07-24T07:36:40;26.50;99.90
63771;DHT22;60282;43.862;18.430;2023-07-24T07:39:05;26.50;99.90
63771;DHT22;60282;43.862;18.430;2023-07-24T07:41:31;26.70;99.90
63771;DHT22;60282;43.862;18.430;2023-07-24T07:43:57;26.80;99.90
63771;DHT22;60282;43.862;18.430;2023-07-24T07:46:23;26.50;99.90
63771;DHT22;60282;43.862;18.430;2023-07-24T07:48:49;26.80;99.90
63771;DHT22;60282;43.862;18.430;2023-07-24T07:51:15;27.00;99.90
63771;DHT22;60282;43.862;18.430;2023-07-24T07:53:40;27.20;99.90
63771;DHT22;60282;43.862;18.430;2023-07-24T07:56:06;27.40;99.90
63771;DHT22;60282;43.862;18.430;2023-07-24T07:58:32;27.60;99.90
63771;DHT22;60282;43.862;18.430;2023-07-24T08:00:58;27.70;99.90
63771;DHT22;60282;43.862;18.430;2023-07-24T08:03:24;27.90;99.80
63771;DHT22;60282;43.862;18.430;2023-07-24T08:05:49;28.00;99.50
63771;DHT22;60282;43.862;18.430;2023-07-24T08:08:15;28.00;99.70
63771;DHT22;60282;43.862;18.430;2023-07-24T08:10:41;28.20;98.80
63771;DHT22;60282;43.862;18.430;2023-07-24T08:13:07;28.30;98.60
63771;DHT22;60282;43.862;18.430;2023-07-24T08:15:36;28.60;98.50
63771;DHT22;60282;43.862;18.430;2023-07-24T08:18:03;28.70;98.30
63771;DHT22;60282;43.862;18.430;2023-07-24T08:20:30;28.80;97.60
63771;DHT22;60282;43.862;18.430;2023-07-24T08:22:56;29.10;97.20
63771;DHT22;60282;43.862;18.430;2023-07-24T08:25:21;29.10;95.80
63771;DHT22;60282;43.862;18.430;2023-07-24T08:27:47;29.20;95.70
63771;DHT22;60282;43.862;18.430;2023-07-24T08:30:13;29.40;95.30
63771;DHT22;60282;43.862;18.430;2023-07-24T08:32:39;29.60;94.90
63771;DHT22;60282;43.862;18.430;2023-07-24T08:35:05;29.70;94.60
63771;DHT22;60282;43.862;18.430;2023-07-24T08:37:31;29.80;93.70
63771;DHT22;60282;43.862;18.430;2023-07-24T08:39:57;29.90;93.30
63771;DHT22;60282;43.862;18.430;2023-07-24T08:42:23;29.90;93.70
63771;DHT22;60282;43.862;18.430;2023-07-24T08:44:50;30.00;93.60
63771;DHT22;60282;43.862;18.430;2023-07-24T08:47:17;30.10;93.60
63771;DHT22;60282;43.862;18.430;2023-07-24T08:49:44;30.10;93.00
63771;DHT22;60282;43.862;18.430;2023-07-24T08:52:11;30.20;92.40
63771;DHT22;60282;43.862;18.430;2023-07-24T08:54:38;30.30;92.40
63771;DHT22;60282;43.862;18.430;2023-07-24T08:57:06;30.40;92.50
63771;DHT22;60282;43.862;18.430;2023-07-24T08:59:32;30.70;92.20
63771;DHT22;60282;43.862;18.430;2023-07-24T09:01:58;30.80;91.60
63771;DHT22;60282;43.862;18.430;2023-07-24T09:04:24;30.90;90.90
63771;DHT22;60282;43.862;18.430;2023-07-24T09:06:50;30.60;90.70
63771;DHT22;60282;43.862;18.430;2023-07-24T09:09:16;31.00;90.80
63771;DHT22;60282;43.862;18.430;2023-07-24T09:11:49;29.40;88.30
63771;DHT22;60282;43.862;18.430;2023-07-24T09:14:22;31.40;88.60
63771;DHT22;60282;43.862;18.430;2023-07-24T09:16:48;31.60;88.90
63771;DHT22;60282;43.862;18.430;2023-07-24T09:19:19;31.60;88.20
63771;DHT22;60282;43.862;18.430;2023-07-24T09:21:45;31.70;86.90
63771;DHT22;60282;43.862;18.430;2023-07-24T09:24:12;31.80;85.60
63771;DHT22;60282;43.862;18.430;2023-07-24T09:26:58;31.90;84.80
63771;DHT22;60282;43.862;18.430;2023-07-24T09:29:31;32.10;84.90
63771;DHT22;60282;43.862;18.430;2023-07-24T09:31:57;33.00;83.40
63771;DHT22;60282;43.862;18.430;2023-07-24T09:34:23;32.30;81.30
63771;DHT22;60282;43.862;18.430;2023-07-24T09:36:51;32.20;81.20
63771;DHT22;60282;43.862;18.430;2023-07-24T09:39:26;32.20;81.70
63771;DHT22;60282;43.862;18.430;2023-07-24T09:41:52;32.10;82.30
63771;DHT22;60282;43.862;18.430;2023-07-24T09:44:18;32.20;81.30
63771;DHT22;60282;43.862;18.430;2023-07-24T09:46:44;32.30;81.10
63771;DHT22;60282;43.862;18.430;2023-07-24T09:49:10;32.30;81.60
63771;DHT22;60282;43.862;18.430;2023-07-24T09:51:37;32.40;79.90
63771;DHT22;60282;43.862;18.430;2023-07-24T09:54:19;32.50;78.40
63771;DHT22;60282;43.862;18.430;2023-07-24T09:56:46;32.40;78.00
63771;DHT22;60282;43.862;18.430;2023-07-24T09:59:13;32.70;78.40
63771;DHT22;60282;43.862;18.430;2023-07-24T10:01:39;32.80;78.30
63771;DHT22;60282;43.862;18.430;2023-07-24T10:04:07;30.50;74.80
63771;DHT22;60282;43.862;18.430;2023-07-24T10:06:33;32.90;77.00
63771;DHT22;60282;43.862;18.430;2023-07-24T10:08:59;32.90;77.00
63771;DHT22;60282;43.862;18.430;2023-07-24T10:11:26;33.00;76.60
63771;DHT22;60282;43.862;18.430;2023-07-24T10:13:52;33.00;77.20
63771;DHT22;60282;43.862;18.430;2023-07-24T10:16:19;33.30;75.20
63771;DHT22;60282;43.862;18.430;2023-07-24T10:18:46;33.40;75.80
63771;DHT22;60282;43.862;18.430;2023-07-24T10:21:13;33.50;75.80
63771;DHT22;60282;43.862;18.430;2023-07-24T10:23:45;33.60;75.80
63771;DHT22;60282;43.862;18.430;2023-07-24T10:26:15;33.40;75.00
63771;DHT22;60282;43.862;18.430;2023-07-24T10:28:46;34.00;74.50
63771;DHT22;60282;43.862;18.430;2023-07-24T10:31:23;35.40;75.40
63771;DHT22;60282;43.862;18.430;2023-07-24T10:33:51;33.90;74.00
63771;DHT22;60282;43.862;18.430;2023-07-24T10:36:21;33.90;75.00
63771;DHT22;60282;43.862;18.430;2023-07-24T10:38:57;34.10;74.60
63771;DHT22;60282;43.862;18.430;2023-07-24T10:41:35;34.30;74.20
63771;DHT22;60282;43.862;18.430;2023-07-24T10:44:14;34.30;74.70
63771;DHT22;60282;43.862;18.430;2023-07-24T10:46:41;36.10;78.70
63771;DHT22;60282;43.862;18.430;2023-07-24T10:49:08;34.30;75.60
63771;DHT22;60282;43.862;18.430;2023-07-24T10:51:34;33.90;75.40
63771;DHT22;60282;43.862;18.430;2023-07-24T10:54:03;34.20;76.60
63771;DHT22;60282;43.862;18.430;2023-07-24T10:56:30;33.80;76.10
63771;DHT22;60282;43.862;18.430;2023-07-24T10:58:56;34.00;75.80
63771;DHT22;60282;43.862;18.430;2023-07-24T11:01:23;34.10;75.70
63771;DHT22;60282;43.862;18.430;2023-07-24T11:03:49;34.50;75.90
63771;DHT22;60282;43.862;18.430;2023-07-24T11:06:19;34.40;72.70
63771;DHT22;60282;43.862;18.430;2023-07-24T11:08:54;34.20;73.40
63771;DHT22;60282;43.862;18.430;2023-07-24T11:11:27;34.10;73.40
63771;DHT22;60282;43.862;18.430;2023-07-24T11:13:52;36.80;75.30
63771;DHT22;60282;43.862;18.430;2023-07-24T11:16:18;34.10;73.00
63771;DHT22;60282;43.862;18.430;2023-07-24T11:18:45;34.10;74.20
63771;DHT22;60282;43.862;18.430;2023-07-24T11:21:12;34.50;73.60
63771;DHT22;60282;43.862;18.430;2023-07-24T11:23:45;35.40;74.50
63771;DHT22;60282;43.862;18.430;2023-07-24T11:26:11;35.30;73.10
63771;DHT22;60282;43.862;18.430;2023-07-24T11:28:40;35.20;73.30
63771;DHT22;60282;43.862;18.430;2023-07-24T11:31:06;35.50;72.20
63771;DHT22;60282;43.862;18.430;2023-07-24T11:33:32;35.80;69.10
63771;DHT22;60282;43.862;18.430;2023-07-24T11:35:59;35.90;70.10
63771;DHT22;60282;43.862;18.430;2023-07-24T11:38:25;35.90;69.50
63771;DHT22;60282;43.862;18.430;2023-07-24T11:43:33;36.40;70.30
63771;DHT22;60282;43.862;18.430;2023-07-24T11:45:58;36.80;70.50
63771;DHT22;60282;43.862;18.430;2023-07-24T11:48:24;37.00;68.40
63771;DHT22;60282;43.862;18.430;2023-07-24T11:50:52;36.80;69.10
63771;DHT22;60282;43.862;18.430;2023-07-24T11:55:57;37.00;67.10
63771;DHT22;60282;43.862;18.430;2023-07-24T11:58:25;37.40;65.00
63771;DHT22;60282;43.862;18.430;2023-07-24T12:00:51;37.70;63.80
63771;DHT22;60282;43.862;18.430;2023-07-24T12:03:21;38.10;63.70
63771;DHT22;60282;43.862;18.430;2023-07-24T12:05:47;38.30;62.00
63771;DHT22;60282;43.862;18.430;2023-07-24T12:08:13;38.30;61.30
63771;DHT22;60282;43.862;18.430;2023-07-24T12:10:40;38.30;60.50
63771;DHT22;60282;43.862;18.430;2023-07-24T12:13:06;38.50;59.90
63771;DHT22;60282;43.862;18.430;2023-07-24T12:15:33;38.40;61.50
63771;DHT22;60282;43.862;18.430;2023-07-24T12:18:03;38.80;61.60
63771;DHT22;60282;43.862;18.430;2023-07-24T12:20:29;38.90;61.90
63771;DHT22;60282;43.862;18.430;2023-07-24T12:22:56;39.60;60.60
63771;DHT22;60282;43.862;18.430;2023-07-24T12:25:23;40.00;59.80
63771;DHT22;60282;43.862;18.430;2023-07-24T12:27:49;39.90;59.30
63771;DHT22;60282;43.862;18.430;2023-07-24T12:30:15;40.10;58.40
63771;DHT22;60282;43.862;18.430;2023-07-24T12:32:41;40.00;59.20
63771;DHT22;60282;43.862;18.430;2023-07-24T12:35:08;39.90;59.40
63771;DHT22;60282;43.862;18.430;2023-07-24T12:37:34;39.60;58.80
63771;DHT22;60282;43.862;18.430;2023-07-24T12:40:00;39.50;59.30
63771;DHT22;60282;43.862;18.430;2023-07-24T12:42:26;39.10;59.80
63771;DHT22;60282;43.862;18.430;2023-07-24T12:44:52;38.70;60.40
63771;DHT22;60282;43.862;18.430;2023-07-24T12:47:18;38.60;60.60
63771;DHT22;60282;43.862;18.430;2023-07-24T12:49:44;36.50;61.00
63771;DHT22;60282;43.862;18.430;2023-07-24T12:52:10;37.50;62.00
63771;DHT22;60282;43.862;18.430;2023-07-24T12:54:36;38.50;61.60
63771;DHT22;60282;43.862;18.430;2023-07-24T12:57:03;39.10;61.90
63771;DHT22;60282;43.862;18.430;2023-07-24T12:59:29;39.40;60.40
63771;DHT22;60282;43.862;18.430;2023-07-24T13:01:55;39.20;60.60
63771;DHT22;60282;43.862;18.430;2023-07-24T13:04:21;39.50;60.70
63771;DHT22;60282;43.862;18.430;2023-07-24T13:06:50;39.60;60.20
63771;DHT22;60282;43.862;18.430;2023-07-24T13:09:16;40.00;60.40
63771;DHT22;60282;43.862;18.430;2023-07-24T13:11:41;39.70;61.10
63771;DHT22;60282;43.862;18.430;2023-07-24T13:14:07;39.60;59.90
63771;DHT22;60282;43.862;18.430;2023-07-24T13:16:33;39.00;60.60
63771;DHT22;60282;43.862;18.430;2023-07-24T13:19:03;38.40;63.40
63771;DHT22;60282;43.862;18.430;2023-07-24T13:21:32;37.90;63.00
63771;DHT22;60282;43.862;18.430;2023-07-24T13:24:00;37.50;64.00
63771;DHT22;60282;43.862;18.430;2023-07-24T13:26:26;36.90;62.20
63771;DHT22;60282;43.862;18.430;2023-07-24T13:28:52;36.50;63.70
63771;DHT22;60282;43.862;18.430;2023-07-24T13:31:21;36.30;65.90
63771;DHT22;60282;43.862;18.430;2023-07-24T13:33:48;36.50;65.10
63771;DHT22;60282;43.862;18.430;2023-07-24T13:36:13;35.80;64.80
63771;DHT22;60282;43.862;18.430;2023-07-24T13:38:40;36.20;63.00
63771;DHT22;60282;43.862;18.430;2023-07-24T13:41:06;37.00;62.30
63771;DHT22;60282;43.862;18.430;2023-07-24T13:43:33;38.00;61.60
63771;DHT22;60282;43.862;18.430;2023-07-24T13:46:00;39.00;60.70
63771;DHT22;60282;43.862;18.430;2023-07-24T13:48:28;40.10;59.30
63771;DHT22;60282;43.862;18.430;2023-07-24T13:50:54;40.80;58.50
63771;DHT22;60282;43.862;18.430;2023-07-24T13:53:21;40.90;58.60
63771;DHT22;60282;43.862;18.430;2023-07-24T13:55:47;41.40;57.80
63771;DHT22;60282;43.862;18.430;2023-07-24T13:58:13;42.10;58.10
63771;DHT22;60282;43.862;18.430;2023-07-24T14:00:45;42.60;57.40
63771;DHT22;60282;43.862;18.430;2023-07-24T14:03:31;44.50;56.90
63771;DHT22;60282;43.862;18.430;2023-07-24T14:05:56;43.50;57.10
63771;DHT22;60282;43.862;18.430;2023-07-24T14:08:23;44.00;56.60
63771;DHT22;60282;43.862;18.430;2023-07-24T14:10:49;44.60;55.40
63771;DHT22;60282;43.862;18.430;2023-07-24T14:13:14;43.70;56.80
63771;DHT22;60282;43.862;18.430;2023-07-24T14:15:43;44.00;55.70
63771;DHT22;60282;43.862;18.430;2023-07-24T14:18:09;42.30;53.80
63771;DHT22;60282;43.862;18.430;2023-07-24T14:20:38;45.10;56.60
63771;DHT22;60282;43.862;18.430;2023-07-24T14:23:12;45.30;55.50
63771;DHT22;60282;43.862;18.430;2023-07-24T14:25:37;44.40;54.00
63771;DHT22;60282;43.862;18.430;2023-07-24T14:28:03;46.00;54.20
63771;DHT22;60282;43.862;18.430;2023-07-24T14:30:29;45.80;53.20
63771;DHT22;60282;43.862;18.430;2023-07-24T14:33:00;45.80;53.70
63771;DHT22;60282;43.862;18.430;2023-07-24T14:35:29;45.90;55.00
63771;DHT22;60282;43.862;18.430;2023-07-24T14:37:54;45.60;52.60
63771;DHT22;60282;43.862;18.430;2023-07-24T14:40:20;44.90;52.10
63771;DHT22;60282;43.862;18.430;2023-07-24T14:42:46;45.00;52.20
63771;DHT22;60282;43.862;18.430;2023-07-24T14:45:12;44.90;53.30
63771;DHT22;60282;43.862;18.430;2023-07-24T14:47:37;45.20;53.50
63771;DHT22;60282;43.862;18.430;2023-07-24T14:50:03;45.10;51.80
63771;DHT22;60282;43.862;18.430;2023-07-24T14:52:29;44.90;52.60
63771;DHT22;60282;43.862;18.430;2023-07-24T14:54:55;45.20;52.90
63771;DHT22;60282;43.862;18.430;2023-07-24T14:57:21;45.70;52.60
63771;DHT22;60282;43.862;18.430;2023-07-24T14:59:47;45.50;52.10
63771;DHT22;60282;43.862;18.430;2023-07-24T15:02:12;45.30;52.50
63771;DHT22;60282;43.862;18.430;2023-07-24T15:04:38;45.10;53.50
63771;DHT22;60282;43.862;18.430;2023-07-24T15:07:04;44.30;52.90
63771;DHT22;60282;43.862;18.430;2023-07-24T15:09:30;44.20;52.90
63771;DHT22;60282;43.862;18.430;2023-07-24T15:11:56;44.60;52.60
63771;DHT22;60282;43.862;18.430;2023-07-24T15:14:22;44.40;53.20
63771;DHT22;60282;43.862;18.430;2023-07-24T15:16:50;44.50;53.20
63771;DHT22;60282;43.862;18.430;2023-07-24T15:19:19;44.20;53.70